Escanaba, MI (49829)

7:04 PM EDT on September 02, 2015 (GMT -0400)
MesoWest | | Change Station
CLOSE
Current Station
Personal Weather Station
Location: Wells, MI
Elevation: 648 ft
Nearby Weather Stations

Elev 648 ft 45.79 °N, 87.08 °W | Updated 34 minutes ago

Overcast
Overcast
74 °F
Feels Like 73 °F
N
5
Wind Variable Wind from SE
Gusts 6.0 mph

Today
High -- | Low -- °F
--% Chance of Precip.
Yesterday
High -- | Low -- °F
Precip. -- in
7:10 AM 8:24 PM
Waning Gibbous, 76% visible
Pressure 29.96 in
Visibility 1.8 miles
Clouds Scattered Clouds 2000 ft
Mostly Cloudy 7000 ft
Overcast 7500 ft
Heat Index 73 °F
Dew Point 70 °F
Humidity 87%
Rainfall in
Snow Depth Not available.
UV 0 out of 12
Pollen 9.60 out of 12
Air Quality Not available.
Flu Activity Not available.
METAR KESC 022255Z AUTO 00000KT 1 3/4SM SCT020 BKN070 OVC075 22/22 A2996 RMK AO1 LTG DSNT ALQDS P0006
Pressure 29.96 in
Visibility 1.8 miles
Clouds Scattered Clouds 2000 ft
Mostly Cloudy 7000 ft
Overcast 7500 ft
Heat Index 73 °F
Dew Point 70 °F
Humidity 87%
Rainfall in
Snow Depth Not available.
UV 0 out of 12
Pollen 9.60 out of 12
Air Quality Not available.
Flu Activity Not available.
METAR KESC 022255Z AUTO 00000KT 1 3/4SM SCT020 BKN070 OVC075 22/22 A2996 RMK AO1 LTG DSNT ALQDS P0006

10-Day Weather Forecast

×

Almanac

Astronomy

Sep. 02, 2015 Rise Set
Actual Time
Civil Twilight
Nautical Twilight
Astronomical Twilight
Moon
Length of Visible Light
Length of Day
Tomorrow will be .
, % of the Moon is Illuminated

Today's Extremes

State Highs State Lows

Community

WunderPhotos

Upload Photos

1,851,821 photos uploaded!

WunderBlogs® & News

Nearby

Air Quality

  Air Quality AQ Index Pollutant
Not available.

Snow Depth

Station Depth Elevation

Earthquake Activity

City Distance Mag. Time & Date
Minimum magnitude displayed is 2.5.

Coastal Water Temperatures

Place Temperature

Stations

Nearby Weather Stations

Station Location Temp. Windchill Dew Point Humidity Wind Precip. Elev Updated Type